Time;durP1;ratioP1;P1;durP2;ratioP2;P2;SDS_P1;SDS_P2;PMS_P1;PMS_P2;Temp;Humidity;BMP_temperature;BMP_pressure;BME280_temperature;BME280_humidity;BME280_pressure;Samples;Min_cycle;Max_cycle;Signal;HPM_P1;HPM_P2
2023/03/23 00:02:25;;;;;;;11.00;5.60;;;;;;;6.24;63.04;100568.30;105709;1257;60541;-52
2023/03/23 00:04:53;;;;;;;14.70;10.90;;;;;;;6.19;63.09;100569.27;105488;1261;66253;-50
2023/03/23 00:07:27;;;;;;;14.40;6.10;;;;;;;6.14;63.12;100566.77;104966;1257;62609;-51
2023/03/23 00:09:55;;;;;;;23.00;13.20;;;;;;;6.09;63.28;100567.92;108708;1257;65039;-52
2023/03/23 00:12:32;;;;;;;11.70;5.30;;;;;;;6.05;63.38;100569.94;108870;1257;58677;-52
2023/03/23 00:15:03;;;;;;;18.20;13.00;;;;;;;6.05;63.30;100566.23;108914;1257;59106;-52
2023/03/23 00:17:32;;;;;;;30.40;17.70;;;;;;;6.08;63.28;100566.23;108761;1257;65886;-53
2023/03/23 00:20:05;;;;;;;23.80;17.10;;;;;;;6.14;63.30;100565.23;108926;1257;61695;-53
2023/03/23 00:22:37;;;;;;;24.10;18.00;;;;;;;6.17;63.57;100559.98;108293;1257;65144;-52
2023/03/23 00:25:05;;;;;;;22.20;10.10;;;;;;;6.18;63.52;100557.34;105159;1261;60485;-52
2023/03/23 00:27:36;;;;;;;23.80;16.80;;;;;;;6.15;63.44;100554.54;105087;1261;60480;-52
2023/03/23 00:30:05;;;;;;;23.30;16.60;;;;;;;6.11;63.35;100554.93;105024;1261;66352;-53
2023/03/23 00:32:32;;;;;;;14.80;7.70;;;;;;;6.06;63.26;100551.35;104704;1263;71307;-51
2023/03/23 00:35:03;;;;;;;13.80;7.00;;;;;;;6.01;63.19;100546.80;105084;1257;64757;-51
2023/03/23 00:37:31;;;;;;;22.90;17.10;;;;;;;5.94;63.10;100549.12;105267;1264;60460;-52
2023/03/23 00:40:06;;;;;;;20.60;16.30;;;;;;;5.85;63.28;100548.89;104932;1258;60441;-51
2023/03/23 00:42:38;;;;;;;13.80;7.70;;;;;;;5.79;63.36;100544.94;105057;1261;66454;-49
2023/03/23 00:45:10;;;;;;;12.30;6.10;;;;;;;5.79;63.36;100541.09;104977;1261;62623;-52
2023/03/23 00:47:38;;;;;;;28.30;17.50;;;;;;;5.83;63.39;100539.80;105179;1257;65756;-52
2023/03/23 00:50:06;;;;;;;12.10;6.30;;;;;;;5.87;63.30;100535.05;104766;1263;60417;-51
2023/03/23 00:52:35;;;;;;;24.30;17.80;;;;;;;5.87;63.34;100533.69;104744;1256;60457;-51
2023/03/23 00:55:03;;;;;;;17.80;9.90;;;;;;;5.83;63.32;100524.98;104836;1260;65964;-51
2023/03/23 00:57:30;;;;;;;29.40;19.90;;;;;;;5.80;63.31;100521.69;105355;1260;61656;-52
2023/03/23 00:59:58;;;;;;;26.60;20.00;;;;;;;5.76;63.15;100518.11;105210;1256;64872;-52
2023/03/23 01:02:25;;;;;;;18.60;10.20;;;;;;;5.69;62.97;100517.14;104839;1257;60502;-52
2023/03/23 01:04:52;;;;;;;28.10;21.00;;;;;;;5.59;62.95;100518.72;105101;1257;60483;-51
2023/03/23 01:07:20;;;;;;;23.60;12.80;;;;;;;5.48;63.20;100510.64;104804;1260;66139;-51
2023/03/23 01:09:48;;;;;;;32.50;23.90;;;;;;;5.41;63.47;100507.71;105014;1257;64002;-51
2023/03/23 01:12:15;;;;;;;27.20;12.10;;;;;;;5.34;63.50;100506.00;104971;1261;64746;-51
2023/03/23 01:14:48;;;;;;;18.80;10.00;;;;;;;5.27;63.68;100507.45;104937;1260;60502;-51
2023/03/23 01:17:16;;;;;;;29.20;22.40;;;;;;;5.22;63.85;100508.96;105089;1257;60483;-51
2023/03/23 01:19:43;;;;;;;14.90;8.50;;;;;;;5.19;64.01;100510.18;104851;1261;66406;-51
2023/03/23 01:22:10;;;;;;;33.40;21.20;;;;;;;5.23;63.90;100512.22;104812;1257;62497;-52
2023/03/23 01:24:39;;;;;;;18.80;7.80;;;;;;;5.27;63.95;100514.41;104927;1258;65001;-52
2023/03/23 01:27:07;;;;;;;31.90;20.30;;;;;;;5.32;64.12;100514.47;105309;1257;60883;-52
2023/03/23 01:29:35;;;;;;;16.10;8.30;;;;;;;5.38;64.25;100513.28;105338;1260;60328;-52
2023/03/23 01:32:02;;;;;;;29.70;20.40;;;;;;;5.39;64.46;100511.98;105254;1257;66202;-51
2023/03/23 01:34:31;;;;;;;31.90;22.50;;;;;;;5.40;64.69;100514.02;104911;1260;61688;-51
2023/03/23 01:36:58;;;;;;;19.10;10.40;;;;;;;5.40;64.73;100511.25;104919;1260;65065;-51
2023/03/23 01:39:25;;;;;;;24.60;13.60;;;;;;;5.38;64.62;100510.67;104734;1265;60543;-51
2023/03/23 01:41:53;;;;;;;32.40;24.40;;;;;;;5.33;64.72;100508.67;104741;1262;62894;-52
2023/03/23 01:44:31;;;;;;;21.50;10.50;;;;;;;5.30;64.81;100509.04;104967;1264;66200;-51
2023/03/23 01:47:05;;;;;;;19.50;10.80;;;;;;;5.27;64.92;100508.20;105116;1258;62431;-52
2023/03/23 01:49:44;;;;;;;24.80;12.40;;;;;;;5.22;64.85;100509.83;104879;1258;64861;-51
2023/03/23 01:52:18;;;;;;;20.20;10.30;;;;;;;5.19;64.81;100510.01;104992;1263;60806;-52
2023/03/23 01:54:47;;;;;;;23.80;12.30;;;;;;;5.13;64.70;100508.41;104914;1263;60358;-55
2023/03/23 01:57:16;;;;;;;33.30;23.70;;;;;;;5.06;64.57;100506.88;104711;1258;65021;-52
2023/03/23 01:59:47;;;;;;;20.10;10.40;;;;;;;5.02;64.63;100507.45;104648;1258;62722;-52
2023/03/23 02:02:26;;;;;;;15.80;6.50;;;;;;;5.02;64.49;100506.20;104616;1261;65155;-52
2023/03/23 02:04:57;;;;;;;15.30;7.90;;;;;;;5.07;64.38;100505.64;104544;1262;60559;-51
2023/03/23 02:07:27;;;;;;;32.60;22.60;;;;;;;5.10;64.10;100508.95;108643;1258;58753;-52
2023/03/23 02:09:57;;;;;;;35.20;24.20;;;;;;;5.13;64.26;100509.66;108722;1257;66189;-53
2023/03/23 02:12:24;;;;;;;23.10;12.40;;;;;;;5.16;64.37;100509.79;108626;1257;61422;-53
2023/03/23 02:14:55;;;;;;;21.70;12.10;;;;;;;5.18;64.26;100510.73;105000;1259;64062;-53
2023/03/23 02:17:28;;;;;;;32.60;25.50;;;;;;;5.17;64.15;100508.85;104400;1257;60821;-51
2023/03/23 02:20:34;;;;;;;22.50;12.70;;;;;;;5.15;64.08;100507.59;104687;1258;60465;-52
2023/03/23 02:23:19;;;;;;;22.60;11.70;;;;;;;5.12;64.04;100507.60;104709;1261;68420;-52
2023/03/23 02:26:07;;;;;;;33.70;23.30;;;;;;;5.05;64.00;100504.51;105053;1257;62627;-51
2023/03/23 02:29:18;;;;;;;21.30;12.20;;;;;;;4.99;63.96;100504.82;104599;1263;65002;-52
2023/03/23 02:31:47;;;;;;;22.20;11.80;;;;;;;4.90;64.01;100502.37;104387;1257;61949;-51
2023/03/23 02:34:25;;;;;;;25.70;11.80;;;;;;;4.81;64.15;100501.49;105525;1258;60441;-51
2023/03/23 02:36:58;;;;;;;25.70;13.50;;;;;;;4.74;64.29;100502.55;105262;1257;64933;-51
2023/03/23 02:39:30;;;;;;;34.70;25.00;;;;;;;4.68;64.34;100503.20;105039;1261;61496;-52
2023/03/23 02:42:02;;;;;;;23.00;10.00;;;;;;;4.62;64.46;100506.13;104774;1262;64781;-52
2023/03/23 02:44:30;;;;;;;17.00;8.70;;;;;;;4.64;64.49;100510.70;105009;1261;61471;-53
2023/03/23 02:46:59;;;;;;;35.40;23.00;;;;;;;4.73;64.43;100507.11;104945;1260;60432;-51
2023/03/23 02:49:27;;;;;;;15.40;7.60;;;;;;;4.81;64.36;100501.81;105245;1260;66773;-52
2023/03/23 02:51:55;;;;;;;14.60;7.60;;;;;;;4.91;64.39;100496.92;105282;1257;62362;-53
2023/03/23 02:54:22;;;;;;;36.10;23.20;;;;;;;5.00;64.55;100495.73;104676;1263;64897;-51
2023/03/23 02:56:50;;;;;;;19.70;11.80;;;;;;;5.07;64.61;100496.08;105048;1258;61073;-52
2023/03/23 02:59:22;;;;;;;20.90;11.20;;;;;;;5.11;64.62;100497.07;104759;1258;60518;-52
2023/03/23 03:02:01;;;;;;;37.70;25.40;;;;;;;5.16;64.58;100499.19;104893;1260;66047;-53
2023/03/23 03:04:28;;;;;;;22.20;11.40;;;;;;;5.19;64.61;100497.98;104967;1260;61641;-53
2023/03/23 03:07:07;;;;;;;32.00;23.30;;;;;;;5.23;64.64;100497.80;104878;1257;65008;-52
2023/03/23 03:10:02;;;;;;;27.60;13.60;;;;;;;5.25;64.54;100498.89;105338;1258;60480;-53
2023/03/23 03:13:15;;;;;;;20.00;10.90;;;;;;;5.25;64.62;100497.34;105342;1258;60512;-52
2023/03/23 03:15:57;;;;;;;28.70;12.10;;;;;;;5.22;64.70;100497.48;105186;1261;66832;-53
2023/03/23 03:18:38;;;;;;;21.20;11.10;;;;;;;5.20;64.91;100499.15;105122;1260;61357;-53
2023/03/23 03:21:07;;;;;;;23.80;13.40;;;;;;;5.21;65.09;100503.64;104951;1257;64736;-52
2023/03/23 03:23:34;;;;;;;33.40;24.70;;;;;;;5.23;65.20;100507.33;105271;1257;60521;-54
2023/03/23 03:26:04;;;;;;;16.20;8.10;;;;;;;5.31;65.20;100504.64;105052;1257;311302;-51
2023/03/23 03:40:55;;;;;;;28.70;21.70;;;;;;;5.96;65.02;100504.14;102993;1287;604758;-52
2023/03/23 03:43:24;;;;;;;35.40;22.80;;;;;;;6.60;63.58;100502.52;104466;1266;251354;-51
2023/03/23 03:45:51;;;;;;;30.80;22.80;;;;;;;6.64;63.67;100503.15;104848;1266;59352;-51
2023/03/23 03:48:18;;;;;;;30.30;21.90;;;;;;;6.65;63.61;100501.38;104819;1268;64286;-53
2023/03/23 03:50:51;;;;;;;34.10;23.20;;;;;;;6.63;63.61;100501.98;104655;1266;70479;-52
2023/03/23 03:53:20;;;;;;;31.20;23.10;;;;;;;6.59;63.55;100500.99;104748;1264;65109;-55
2023/03/23 03:55:49;;;;;;;18.60;10.60;;;;;;;6.52;63.58;100498.13;104558;1266;59317;-56
2023/03/23 03:58:17;;;;;;;34.40;24.60;;;;;;;6.44;63.68;100500.17;104938;1264;59368;-53
2023/03/23 04:01:03;;;;;;;24.40;11.20;;;;;;;6.35;63.68;100502.14;104667;1264;64846;-52
2023/03/23 04:03:33;;;;;;;33.50;22.60;;;;;;;6.30;63.68;100496.69;104803;1266;62699;-52
2023/03/23 04:06:22;;;;;;;27.40;22.30;;;;;;;6.27;63.69;100495.77;104774;1266;64823;-52
2023/03/23 04:08:51;;;;;;;29.20;21.80;;;;;;;6.28;63.89;100492.61;104757;1266;59619;-51
2023/03/23 04:11:19;;;;;;;31.70;22.70;;;;;;;6.28;64.19;100492.11;104565;1266;59637;-51
2023/03/23 04:13:48;;;;;;;24.70;11.60;;;;;;;6.27;64.27;100492.31;105182;1260;65666;-51
2023/03/23 04:16:22;;;;;;;19.10;9.90;;;;;;;6.26;64.27;100495.67;105121;1258;62504;-51
2023/03/23 04:18:49;;;;;;;30.80;23.10;;;;;;;6.25;64.42;100494.52;105433;1257;73787;-50
2023/03/23 04:21:18;;;;;;;38.00;25.50;;;;;;;6.25;64.41;100496.11;105336;1257;59791;-51
2023/03/23 04:23:47;;;;;;;24.00;12.90;;;;;;;6.23;64.39;100496.38;105370;1257;59794;-51
2023/03/23 04:26:15;;;;;;;35.70;26.60;;;;;;;6.20;64.41;100502.17;105252;1260;64903;-51
2023/03/23 04:28:46;;;;;;;19.90;10.00;;;;;;;6.16;64.55;100502.20;105325;1260;62561;-51
2023/03/23 04:31:34;;;;;;;17.10;9.00;;;;;;;6.21;64.68;100500.70;105214;1257;65221;-51
2023/03/23 04:34:14;;;;;;;29.00;22.60;;;;;;;6.29;64.70;100499.52;105356;1257;59785;-51
2023/03/23 04:36:46;;;;;;;30.40;22.10;;;;;;;6.38;64.78;100503.17;105409;1258;59835;-51
2023/03/23 04:39:17;;;;;;;26.60;20.70;;;;;;;6.44;65.01;100502.65;105371;1260;65137;-51
2023/03/23 04:41:49;;;;;;;19.30;11.10;;;;;;;6.46;65.20;100502.48;105187;1258;62827;-51
2023/03/23 04:44:22;;;;;;;17.20;10.10;;;;;;;6.48;65.25;100504.28;105208;1259;64668;-52
2023/03/23 04:47:02;;;;;;;19.20;9.80;;;;;;;6.48;65.25;100499.78;105056;1257;59564;-51
2023/03/23 04:49:32;;;;;;;16.70;9.00;;;;;;;6.44;65.24;100498.27;105046;1262;59686;-51
2023/03/23 04:52:11;;;;;;;26.70;21.50;;;;;;;6.41;65.40;100500.34;105080;1257;74614;-49
2023/03/23 04:54:44;;;;;;;29.60;21.80;;;;;;;6.42;65.45;100501.70;105108;1259;62338;-50
2023/03/23 04:57:12;;;;;;;30.90;21.90;;;;;;;6.48;65.53;100502.02;105038;1260;64715;-50
2023/03/23 04:59:44;;;;;;;28.30;21.70;;;;;;;6.59;65.64;100499.28;105180;1260;59617;-50
2023/03/23 05:02:18;;;;;;;26.90;21.30;;;;;;;6.70;65.81;100496.53;105005;1259;59727;-49
2023/03/23 05:04:47;;;;;;;29.90;22.30;;;;;;;6.77;65.84;100495.59;105032;1257;64381;-50
2023/03/23 05:07:18;;;;;;;29.40;23.00;;;;;;;6.80;66.05;100494.33;105123;1258;62515;-50
2023/03/23 05:09:48;;;;;;;20.00;9.30;;;;;;;6.86;66.19;100491.16;104954;1260;64713;-51
2023/03/23 05:12:19;;;;;;;28.80;22.40;;;;;;;6.91;66.34;100494.84;104906;1260;59736;-49
2023/03/23 05:15:03;;;;;;;28.50;21.70;;;;;;;6.98;66.49;100495.98;105137;1258;59629;-50
2023/03/23 05:17:32;;;;;;;26.60;21.30;;;;;;;7.11;66.53;100497.45;105307;1259;64332;-50
2023/03/23 05:20:04;;;;;;;26.80;21.60;;;;;;;7.26;66.44;100502.75;105259;1259;62450;-50
2023/03/23 05:22:41;;;;;;;28.90;22.50;;;;;;;7.42;66.30;100502.60;105400;1257;63957;-51
2023/03/23 05:25:10;;;;;;;31.60;24.30;;;;;;;7.53;66.22;100507.67;105591;1258;62596;-51
2023/03/23 05:27:43;;;;;;;31.80;25.70;;;;;;;7.62;66.15;100506.73;105542;1257;59553;-50
2023/03/23 05:30:21;;;;;;;29.30;24.90;;;;;;;7.71;66.34;100501.04;105292;1262;64267;-50
2023/03/23 05:32:51;;;;;;;30.50;25.50;;;;;;;7.82;66.34;100501.37;105178;1258;62396;-50
2023/03/23 05:35:47;;;;;;;;;;;;;;;7.97;66.46;100504.08;105177;1262;65061;-50
2023/03/23 05:38:15;;;;;;;17.00;9.30;;;;;;;8.16;66.33;100503.85;105242;1262;59657;-50
2023/03/23 05:40:44;;;;;;;32.90;28.10;;;;;;;8.34;66.06;100506.97;105298;1261;59652;-50
2023/03/23 05:43:17;;;;;;;35.10;27.80;;;;;;;8.51;65.85;100507.27;107288;1259;65317;-51
2023/03/23 05:46:01;;;;;;;32.80;28.20;;;;;;;8.64;65.82;100509.10;105331;1258;62484;-53
2023/03/23 05:48:28;;;;;;;39.50;29.70;;;;;;;8.77;65.76;100512.45;105091;1259;64732;-50
2023/03/23 05:50:56;;;;;;;37.10;30.60;;;;;;;8.88;65.69;100514.11;105162;1257;59695;-51
2023/03/23 05:53:25;;;;;;;35.10;28.90;;;;;;;8.99;65.60;100511.42;105244;1259;59757;-51
2023/03/23 05:55:58;;;;;;;34.10;27.70;;;;;;;9.09;65.36;100513.31;105327;1259;65768;-51
2023/03/23 05:58:37;;;;;;;32.80;25.00;;;;;;;9.15;65.27;100515.14;105244;1260;62666;-51
2023/03/23 06:01:08;;;;;;;31.30;23.60;;;;;;;9.26;64.90;100518.89;105314;1260;65254;-51
2023/03/23 06:03:35;;;;;;;28.00;22.20;;;;;;;9.39;64.59;100521.15;105200;1259;59777;-54
2023/03/23 06:06:12;;;;;;;32.60;24.90;;;;;;;9.51;64.17;100521.49;105204;1257;59698;-50
2023/03/23 06:08:50;;;;;;;28.30;22.80;;;;;;;9.58;63.88;100522.69;105076;1258;65043;-55
2023/03/23 06:11:21;;;;;;;31.50;23.50;;;;;;;9.65;63.64;100521.02;105403;1259;62455;-52
2023/03/23 06:14:04;;;;;;;30.90;25.60;;;;;;;9.71;63.43;100525.08;104886;1259;64599;-52
2023/03/23 06:16:32;;;;;;;31.70;24.50;;;;;;;9.75;63.18;100527.76;105263;1257;59796;-52
2023/03/23 06:19:03;;;;;;;29.40;24.30;;;;;;;9.76;63.09;100525.98;105341;1259;60134;-52
2023/03/23 06:21:35;;;;;;;29.00;23.50;;;;;;;9.75;63.06;100528.48;105091;1260;65277;-52
2023/03/23 06:24:26;;;;;;;28.40;23.30;;;;;;;9.79;62.87;100529.61;105157;1260;62544;-52
2023/03/23 06:26:57;;;;;;;28.00;23.00;;;;;;;9.84;62.79;100529.19;105084;1264;64736;-50
2023/03/23 06:29:24;;;;;;;30.10;23.90;;;;;;;9.90;62.81;100531.41;105211;1260;59630;-50
2023/03/23 06:32:01;;;;;;;28.10;25.10;;;;;;;9.93;62.71;100536.13;105224;1258;62329;-52
2023/03/23 06:34:32;;;;;;;35.10;26.90;;;;;;;9.93;62.70;100534.87;105214;1263;65190;-53
2023/03/23 06:37:01;;;;;;;32.20;26.60;;;;;;;9.96;62.96;100529.92;105259;1259;62486;-51
2023/03/23 06:39:38;;;;;;;34.40;27.40;;;;;;;10.02;63.23;100525.07;105531;1260;65088;-51
2023/03/23 06:42:25;;;;;;;35.10;26.60;;;;;;;10.12;63.37;100521.82;105262;1259;59625;-50
2023/03/23 06:45:09;;;;;;;31.30;24.80;;;;;;;10.21;63.41;100520.61;105223;1257;59662;-52
2023/03/23 06:47:38;;;;;;;30.60;25.30;;;;;;;10.35;63.11;100523.81;105215;1258;65427;-51
2023/03/23 06:50:13;;;;;;;33.30;26.40;;;;;;;10.52;63.01;100521.30;105124;1257;62627;-54
2023/03/23 06:52:49;;;;;;;32.60;27.00;;;;;;;10.69;63.12;100519.60;105212;1260;65108;-53
2023/03/23 06:55:17;;;;;;;33.40;28.60;;;;;;;10.85;63.43;100522.36;105211;1261;59710;-53
2023/03/23 06:57:47;;;;;;;35.90;30.00;;;;;;;11.00;63.58;100523.70;105345;1258;59677;-53
2023/03/23 07:00:15;;;;;;;39.70;31.30;;;;;;;11.08;63.47;100522.02;105319;1262;65481;-54
2023/03/23 07:02:52;;;;;;;41.80;32.60;;;;;;;11.15;63.61;100525.13;105106;1259;62809;-53
2023/03/23 07:05:20;;;;;;;39.70;30.80;;;;;;;11.19;63.51;100527.63;105494;1258;65738;-54
2023/03/23 07:07:49;;;;;;;37.10;27.50;;;;;;;11.24;63.13;100528.79;105050;1259;59699;-54
2023/03/23 07:10:38;;;;;;;33.10;27.10;;;;;;;11.34;62.61;100525.53;105329;1260;59717;-52
2023/03/23 07:13:06;;;;;;;40.90;29.30;;;;;;;11.45;62.00;100524.66;105384;1257;65326;-56
2023/03/23 07:15:41;;;;;;;47.10;39.00;;;;;;;11.50;61.49;100527.73;105289;1260;62372;-58
2023/03/23 07:18:10;;;;;;;47.50;38.00;;;;;;;11.56;61.17;100529.35;105084;1262;63897;-56
2023/03/23 07:20:43;;;;;;;42.60;34.60;;;;;;;11.61;60.90;100530.34;105340;1260;59915;-55
2023/03/23 07:23:20;;;;;;;36.10;30.20;;;;;;;11.64;60.74;100528.14;105279;1259;59661;-53
2023/03/23 07:25:56;;;;;;;37.20;31.80;;;;;;;11.69;60.57;100526.69;105398;1261;65655;-54
2023/03/23 07:28:27;;;;;;;37.90;29.30;;;;;;;11.74;60.62;100529.63;105240;1257;62193;-54
2023/03/23 07:30:57;;;;;;;35.60;30.10;;;;;;;11.80;60.52;100532.88;105306;1258;65587;-55
2023/03/23 07:33:26;;;;;;;36.90;28.20;;;;;;;11.89;60.58;100532.85;105379;1257;59730;-55
2023/03/23 07:35:55;;;;;;;35.40;28.30;;;;;;;12.03;60.38;100526.94;105198;1259;59619;-52
2023/03/23 07:38:24;;;;;;;33.50;27.00;;;;;;;12.20;60.26;100525.72;105540;1261;64358;-52
2023/03/23 07:40:52;;;;;;;34.20;27.90;;;;;;;12.37;59.88;100525.85;105215;1259;62459;-54
2023/03/23 07:43:20;;;;;;;39.90;33.40;;;;;;;12.52;59.58;100522.10;105227;1260;64736;-53
2023/03/23 07:45:56;;;;;;;37.30;30.30;;;;;;;12.62;59.43;100517.86;105221;1259;59650;-50
2023/03/23 07:48:27;;;;;;;61.20;45.80;;;;;;;12.69;59.26;100516.73;105234;1259;59747;-51
2023/03/23 07:50:54;;;;;;;38.20;33.50;;;;;;;12.75;58.90;100514.77;105185;1262;65132;-51
2023/03/23 07:53:24;;;;;;;35.10;29.10;;;;;;;12.77;58.67;100513.03;105158;1259;62686;-53
2023/03/23 07:56:07;;;;;;;33.70;28.50;;;;;;;12.80;58.36;100511.74;105303;1262;64723;-52
2023/03/23 07:58:34;;;;;;;32.40;28.30;;;;;;;12.83;57.99;100514.50;105458;1261;60546;-52
2023/03/23 08:01:02;;;;;;;37.50;30.20;;;;;;;12.86;57.90;100510.34;105066;1260;60502;-52
2023/03/23 08:03:33;;;;;;;44.20;34.10;;;;;;;12.88;57.90;100512.76;105179;1260;65192;-52
2023/03/23 08:06:24;;;;;;;40.90;31.90;;;;;;;13.00;57.61;100511.54;105055;1259;62592;-52
2023/03/23 08:09:23;;;;;;;36.00;27.70;;;;;;;13.18;57.42;100505.20;105186;1261;64817;-53
2023/03/23 08:11:57;;;;;;;31.70;26.20;;;;;;;13.31;57.22;100507.84;104971;1261;60479;-50
2023/03/23 08:14:43;;;;;;;34.10;28.60;;;;;;;13.44;56.99;100507.02;105201;1260;60507;-51
2023/03/23 08:17:40;;;;;;;31.40;25.50;;;;;;;13.60;56.85;100502.54;105287;1259;66146;-52
2023/03/23 08:20:12;;;;;;;28.30;25.20;;;;;;;13.76;56.51;100500.55;105195;1260;63077;-51
2023/03/23 08:23:11;;;;;;;44.60;32.50;;;;;;;13.94;56.10;100495.77;105122;1262;64399;-51
2023/03/23 08:25:54;;;;;;;35.40;27.50;;;;;;;14.10;55.47;100495.68;105104;1259;60352;-52
2023/03/23 08:28:33;;;;;;;29.60;23.40;;;;;;;14.26;55.21;100497.56;105174;1262;60563;-51
2023/03/23 08:31:11;;;;;;;29.70;24.60;;;;;;;14.42;54.51;100499.08;105250;1258;65210;-51
2023/03/23 08:34:04;;;;;;;28.20;23.30;;;;;;;14.56;53.78;100498.73;105137;1260;62615;-51
2023/03/23 08:36:37;;;;;;;28.10;23.20;;;;;;;14.66;52.94;100497.52;105149;1260;65292;-52
2023/03/23 08:39:30;;;;;;;31.90;24.90;;;;;;;14.73;52.42;100499.08;105131;1257;60569;-51
2023/03/23 08:42:15;;;;;;;26.90;23.90;;;;;;;14.80;52.42;100501.11;105218;1259;60486;-52
2023/03/23 08:45:07;;;;;;;27.70;22.50;;;;;;;14.91;52.06;100497.95;105109;1262;66180;-50
2023/03/23 08:48:00;;;;;;;31.40;23.70;;;;;;;15.03;51.72;100495.04;104929;1260;62462;-52
2023/03/23 08:50:40;;;;;;;29.00;23.00;;;;;;;15.16;51.44;100494.88;105486;1258;67466;-51
2023/03/23 08:53:31;;;;;;;28.40;22.70;;;;;;;15.28;51.21;100496.71;105606;1253;60536;-51
2023/03/23 08:56:22;;;;;;;31.50;24.10;;;;;;;15.36;50.60;100487.05;105411;1256;60442;-51
2023/03/23 08:59:09;;;;;;;32.00;23.40;;;;;;;15.45;50.40;100484.58;105337;1258;66218;-52
2023/03/23 09:01:55;;;;;;;34.30;22.10;;;;;;;15.54;50.01;100479.82;105500;1253;62504;-59
2023/03/23 09:04:58;;;;;;;28.00;22.40;;;;;;;15.59;49.40;100476.25;105139;1262;64723;-53
2023/03/23 09:08:03;;;;;;;33.50;24.50;;;;;;;15.64;49.22;100471.55;105452;1253;60560;-53
2023/03/23 09:10:34;;;;;;;25.30;22.00;;;;;;;15.61;49.27;100467.22;105479;1259;60447;-49
2023/03/23 09:13:01;;;;;;;31.80;23.90;;;;;;;15.66;49.40;100463.44;105647;1258;66036;-51
2023/03/23 09:15:30;;;;;;;25.80;20.70;;;;;;;15.78;49.26;100457.27;105417;1259;62456;-50
2023/03/23 09:18:00;;;;;;;28.20;21.00;;;;;;;15.87;48.85;100458.19;105430;1258;65023;-48
2023/03/23 09:20:28;;;;;;;30.20;21.20;;;;;;;15.90;48.49;100457.85;105718;1253;60444;-49
2023/03/23 09:22:57;;;;;;;31.10;23.80;;;;;;;15.96;48.38;100456.85;105663;1257;60460;-50
2023/03/23 09:25:26;;;;;;;29.00;24.10;;;;;;;16.05;48.22;100451.37;105571;1254;65398;-51
2023/03/23 09:27:58;;;;;;;26.10;21.40;;;;;;;16.13;48.23;100451.05;105323;1258;61610;-50
2023/03/23 09:30:30;;;;;;;28.40;22.00;;;;;;;16.22;48.26;100451.62;105482;1259;64451;-50
2023/03/23 09:33:00;;;;;;;29.00;20.30;;;;;;;16.31;48.18;100446.73;105402;1253;60525;-51
2023/03/23 09:35:28;;;;;;;25.40;21.40;;;;;;;16.42;48.02;100444.06;105427;1256;60655;-50
2023/03/23 09:37:55;;;;;;;25.80;21.40;;;;;;;16.49;47.69;100441.13;105383;1257;66214;-50
2023/03/23 09:40:24;;;;;;;28.10;20.40;;;;;;;16.57;47.79;100438.10;105408;1253;62705;-50
2023/03/23 09:43:24;;;;;;;24.60;20.50;;;;;;;16.64;47.32;100436.99;105346;1254;63877;-50
2023/03/23 09:46:43;;;;;;;23.90;20.50;;;;;;;16.70;47.37;100432.61;105574;1253;60447;-52
2023/03/23 09:49:40;;;;;;;25.00;19.70;;;;;;;16.81;47.53;100427.69;105308;1254;61115;-49
2023/03/23 09:52:15;;;;;;;24.00;20.90;;;;;;;16.92;47.11;100426.08;105387;1253;66554;-49
2023/03/23 09:54:53;;;;;;;26.50;20.70;;;;;;;17.03;46.99;100427.95;107111;1256;61622;-49
2023/03/23 09:57:38;;;;;;;24.00;20.30;;;;;;;17.13;46.93;100424.61;105650;1259;64729;-51
2023/03/23 10:00:18;;;;;;;24.20;20.50;;;;;;;17.25;47.17;100421.10;105421;1253;60440;-49
2023/03/23 10:03:02;;;;;;;20.80;17.40;;;;;;;17.37;46.38;100419.88;105397;1253;60422;-48
2023/03/23 10:05:39;;;;;;;19.40;15.50;;;;;;;17.40;44.84;100418.24;105383;1258;64999;-49
2023/03/23 10:08:12;;;;;;;19.90;14.70;;;;;;;17.44;44.37;100408.04;105477;1253;62810;-49
2023/03/23 10:10:57;;;;;;;;;;;;;;;17.52;43.86;100400.73;105299;1259;65009;-49
2023/03/23 10:13:40;;;;;;;19.60;15.10;;;;;;;17.59;43.61;100398.84;105514;1254;60436;-49
2023/03/23 10:16:14;;;;;;;21.10;14.50;;;;;;;17.66;43.19;100396.67;105491;1254;60462;-49
2023/03/23 10:18:48;;;;;;;18.00;14.30;;;;;;;17.72;42.70;100394.27;105448;1259;66240;-52
2023/03/23 10:21:20;;;;;;;17.10;13.90;;;;;;;17.75;42.75;100393.55;105491;1253;62640;-51
2023/03/23 10:23:59;;;;;;;18.90;14.40;;;;;;;17.82;43.05;100392.25;105245;1259;63700;-50
2023/03/23 10:26:29;;;;;;;18.60;13.70;;;;;;;17.93;41.46;100395.98;105587;1258;60559;-51
2023/03/23 10:29:31;;;;;;;15.40;11.40;;;;;;;17.97;40.79;100388.42;105481;1259;60408;-49
2023/03/23 10:32:03;;;;;;;16.30;12.60;;;;;;;17.97;40.33;100384.06;105469;1257;66211;-50
2023/03/23 10:34:50;;;;;;;16.10;12.60;;;;;;;17.95;40.47;100380.90;105634;1253;61666;-48
2023/03/23 10:37:23;;;;;;;16.50;12.70;;;;;;;17.94;40.60;100376.41;105743;1260;64873;-49
2023/03/23 10:39:54;;;;;;;16.60;11.70;;;;;;;17.93;40.27;100371.86;105577;1257;60427;-49
2023/03/23 10:42:28;;;;;;;16.30;12.70;;;;;;;17.95;40.18;100368.82;105582;1254;60556;-49
2023/03/23 10:44:56;;;;;;;19.70;13.60;;;;;;;17.96;40.21;100367.86;105556;1258;66277;-50
2023/03/23 10:47:24;;;;;;;19.60;14.10;;;;;;;17.92;39.89;100364.78;105557;1253;62725;-50
2023/03/23 10:50:02;;;;;;;17.70;13.40;;;;;;;17.86;39.78;100361.31;105491;1259;65008;-51
2023/03/23 10:52:37;;;;;;;18.50;13.30;;;;;;;17.83;40.38;100359.24;105459;1255;60560;-51
2023/03/23 10:55:09;;;;;;;15.60;13.50;;;;;;;17.80;40.70;100351.77;105656;1257;60434;-51
2023/03/23 10:57:39;;;;;;;18.40;13.20;;;;;;;17.82;40.58;100345.95;105569;1253;65771;-50
2023/03/23 11:00:18;;;;;;;15.30;12.50;;;;;;;17.85;40.52;100350.44;105685;1256;62718;-52
2023/03/23 11:03:15;;;;;;;15.90;13.60;;;;;;;17.90;40.55;100347.05;105467;1254;65103;-50
2023/03/23 11:05:45;;;;;;;18.00;13.20;;;;;;;17.97;40.60;100347.86;105462;1254;60397;-50
2023/03/23 11:08:21;;;;;;;16.40;12.90;;;;;;;18.03;40.90;100344.54;105548;1254;60384;-48
2023/03/23 11:10:56;;;;;;;16.90;14.00;;;;;;;18.14;40.82;100342.09;105384;1259;66276;-49
2023/03/23 11:13:31;;;;;;;15.80;12.50;;;;;;;18.24;40.65;100339.68;105724;1260;61666;-49
2023/03/23 11:16:03;;;;;;;;;;;;;;;18.29;40.00;100329.89;105448;1259;64718;-51
2023/03/23 11:18:39;;;;;;;15.10;12.40;;;;;;;18.29;39.77;100325.48;105326;1259;60444;-50
2023/03/23 11:21:07;;;;;;;16.40;13.10;;;;;;;18.28;39.57;100325.76;105440;1258;60700;-49
2023/03/23 11:23:42;;;;;;;18.70;12.90;;;;;;;18.25;39.28;100323.64;105547;1257;66288;-50
2023/03/23 11:26:12;;;;;;;14.80;12.00;;;;;;;18.24;39.29;100321.91;105327;1259;62664;-49
2023/03/23 11:29:03;;;;;;;16.10;12.90;;;;;;;18.28;39.32;100319.52;105696;1253;65166;-49
2023/03/23 11:31:36;;;;;;;15.20;12.50;;;;;;;18.30;39.38;100317.84;105403;1256;60325;-50
2023/03/23 11:34:15;;;;;;;14.70;11.70;;;;;;;18.37;39.11;100312.08;105569;1258;60474;-49
2023/03/23 11:36:48;;;;;;;17.30;13.60;;;;;;;18.44;39.10;100312.58;105347;1259;64908;-49
2023/03/23 11:39:32;;;;;;;18.10;12.70;;;;;;;18.50;39.14;100309.04;105388;1259;62489;-50
2023/03/23 11:42:01;;;;;;;15.00;10.60;;;;;;;18.58;38.33;100311.48;105513;1258;64798;-49
2023/03/23 11:44:34;;;;;;;14.20;12.20;;;;;;;18.59;37.88;100309.94;105596;1258;60364;-50
2023/03/23 11:47:04;;;;;;;14.50;11.50;;;;;;;18.65;38.25;100304.61;105528;1259;60544;-50
2023/03/23 11:50:14;;;;;;;15.90;12.30;;;;;;;18.80;38.26;100302.70;105621;1258;66407;-51
2023/03/23 11:53:07;;;;;;;15.30;11.70;;;;;;;19.03;37.60;100297.81;105445;1253;62806;-49
2023/03/23 11:55:51;;;;;;;13.80;11.50;;;;;;;19.20;36.83;100289.39;105558;1253;64768;-49